Terminal Aerodrome Forecast
Issued by NWS

Home | Current Version | Previous Version | Text Only | Print | Product List | Glossary On
Versions: 1 2 3 4 5 6 7 8 9 10 11 12 13 14 15 16 17 18 19 20 21 22 23 24 25 26 27 28 29 30 31 32 33 34 35 36 37 38 39 40 41 42 43 44 45 46 47 48 49 50
000
FTAK31 PANC 231013 CCA
TAFASN
TAF COR
PASN 231013Z 2310/2406 09012KT 6SM BR SCT004 OVC060
      TEMPO 2310/2312 BKN004 BKN015
     FM231200 09012KT 3SM BR BKN008
     FM232000 08012KT 5SM BR BKN015=

USA.gov is the U.S. government's official web portal to all federal, state and local government web resources and services.